sensor_id;sensor_type;location;lat;lon;timestamp;P1;durP1;ratioP1;P2;durP2;ratioP2
10653;SDS011;5375;51.250;6.776;2023-09-18T00:01:09;4.03;;;3.60;;
10653;SDS011;5375;51.250;6.776;2023-09-18T00:03:35;5.65;;;3.50;;
10653;SDS011;5375;51.250;6.776;2023-09-18T00:06:01;5.40;;;3.92;;
10653;SDS011;5375;51.250;6.776;2023-09-18T00:08:27;4.63;;;3.40;;
10653;SDS011;5375;51.250;6.776;2023-09-18T00:10:54;4.10;;;3.38;;
10653;SDS011;5375;51.250;6.776;2023-09-18T00:13:20;5.28;;;3.83;;
10653;SDS011;5375;51.250;6.776;2023-09-18T00:15:46;6.40;;;4.03;;
10653;SDS011;5375;51.250;6.776;2023-09-18T00:18:16;4.40;;;3.47;;
10653;SDS011;5375;51.250;6.776;2023-09-18T00:20:42;6.30;;;3.83;;
10653;SDS011;5375;51.250;6.776;2023-09-18T00:23:09;4.38;;;3.92;;
10653;SDS011;5375;51.250;6.776;2023-09-18T00:25:35;4.43;;;3.60;;
10653;SDS011;5375;51.250;6.776;2023-09-18T00:28:07;3.88;;;3.45;;
10653;SDS011;5375;51.250;6.776;2023-09-18T00:30:33;4.72;;;3.72;;
10653;SDS011;5375;51.250;6.776;2023-09-18T00:32:59;4.75;;;3.70;;
10653;SDS011;5375;51.250;6.776;2023-09-18T00:35:25;5.10;;;3.75;;
10653;SDS011;5375;51.250;6.776;2023-09-18T00:37:51;3.92;;;3.53;;
10653;SDS011;5375;51.250;6.776;2023-09-18T00:40:18;5.25;;;3.38;;
10653;SDS011;5375;51.250;6.776;2023-09-18T00:42:45;6.00;;;3.90;;
10653;SDS011;5375;51.250;6.776;2023-09-18T00:45:11;3.83;;;3.40;;
10653;SDS011;5375;51.250;6.776;2023-09-18T00:47:37;4.78;;;3.63;;
10653;SDS011;5375;51.250;6.776;2023-09-18T00:50:04;4.07;;;3.67;;
10653;SDS011;5375;51.250;6.776;2023-09-18T00:52:30;4.05;;;3.65;;
10653;SDS011;5375;51.250;6.776;2023-09-18T00:54:57;5.97;;;3.38;;
10653;SDS011;5375;51.250;6.776;2023-09-18T00:57:25;4.85;;;3.70;;
10653;SDS011;5375;51.250;6.776;2023-09-18T00:59:51;3.97;;;3.63;;
10653;SDS011;5375;51.250;6.776;2023-09-18T01:02:17;6.72;;;4.15;;
10653;SDS011;5375;51.250;6.776;2023-09-18T01:04:45;4.53;;;3.90;;
10653;SDS011;5375;51.250;6.776;2023-09-18T01:07:12;5.03;;;3.70;;
10653;SDS011;5375;51.250;6.776;2023-09-18T01:09:38;4.03;;;3.42;;
10653;SDS011;5375;51.250;6.776;2023-09-18T01:16:57;5.15;;;3.95;;
10653;SDS011;5375;51.250;6.776;2023-09-18T01:22:05;4.35;;;3.63;;
10653;SDS011;5375;51.250;6.776;2023-09-18T01:24:32;4.97;;;3.90;;
10653;SDS011;5375;51.250;6.776;2023-09-18T01:26:58;5.50;;;3.30;;
10653;SDS011;5375;51.250;6.776;2023-09-18T01:29:24;4.10;;;3.40;;
10653;SDS011;5375;51.250;6.776;2023-09-18T01:31:50;6.32;;;3.67;;
10653;SDS011;5375;51.250;6.776;2023-09-18T01:34:18;5.22;;;3.88;;
10653;SDS011;5375;51.250;6.776;2023-09-18T01:36:47;5.75;;;3.60;;
10653;SDS011;5375;51.250;6.776;2023-09-18T01:39:15;5.88;;;3.60;;
10653;SDS011;5375;51.250;6.776;2023-09-18T01:41:41;6.90;;;3.67;;
10653;SDS011;5375;51.250;6.776;2023-09-18T01:44:07;6.80;;;3.17;;
10653;SDS011;5375;51.250;6.776;2023-09-18T01:46:33;5.18;;;3.30;;
10653;SDS011;5375;51.250;6.776;2023-09-18T01:49:01;4.80;;;4.07;;
10653;SDS011;5375;51.250;6.776;2023-09-18T01:51:27;5.13;;;4.10;;
10653;SDS011;5375;51.250;6.776;2023-09-18T01:53:53;6.80;;;3.80;;
10653;SDS011;5375;51.250;6.776;2023-09-18T01:56:23;4.72;;;3.92;;
10653;SDS011;5375;51.250;6.776;2023-09-18T01:58:49;5.85;;;4.28;;
10653;SDS011;5375;51.250;6.776;2023-09-18T02:01:15;4.88;;;3.53;;
10653;SDS011;5375;51.250;6.776;2023-09-18T02:03:42;4.65;;;3.42;;
10653;SDS011;5375;51.250;6.776;2023-09-18T02:06:08;5.50;;;3.50;;
10653;SDS011;5375;51.250;6.776;2023-09-18T02:08:34;4.53;;;3.85;;
10653;SDS011;5375;51.250;6.776;2023-09-18T02:11:00;4.88;;;3.60;;
10653;SDS011;5375;51.250;6.776;2023-09-18T02:13:28;6.10;;;3.80;;
10653;SDS011;5375;51.250;6.776;2023-09-18T02:15:55;4.60;;;3.63;;
10653;SDS011;5375;51.250;6.776;2023-09-18T02:18:21;5.03;;;3.85;;
10653;SDS011;5375;51.250;6.776;2023-09-18T02:20:47;3.78;;;3.47;;
10653;SDS011;5375;51.250;6.776;2023-09-18T02:23:17;4.53;;;3.60;;
10653;SDS011;5375;51.250;6.776;2023-09-18T02:25:44;6.18;;;3.70;;
10653;SDS011;5375;51.250;6.776;2023-09-18T02:28:10;5.00;;;3.67;;
10653;SDS011;5375;51.250;6.776;2023-09-18T02:30:39;6.85;;;4.18;;
10653;SDS011;5375;51.250;6.776;2023-09-18T02:33:05;5.05;;;3.58;;
10653;SDS011;5375;51.250;6.776;2023-09-18T02:35:31;4.65;;;3.97;;
10653;SDS011;5375;51.250;6.776;2023-09-18T02:37:57;5.78;;;4.00;;
10653;SDS011;5375;51.250;6.776;2023-09-18T02:40:25;6.00;;;3.75;;
10653;SDS011;5375;51.250;6.776;2023-09-18T02:42:51;3.75;;;3.45;;
10653;SDS011;5375;51.250;6.776;2023-09-18T02:45:17;7.25;;;3.97;;
10653;SDS011;5375;51.250;6.776;2023-09-18T02:47:42;4.32;;;3.53;;
10653;SDS011;5375;51.250;6.776;2023-09-18T02:50:09;5.28;;;4.05;;
10653;SDS011;5375;51.250;6.776;2023-09-18T02:52:36;5.18;;;3.75;;
10653;SDS011;5375;51.250;6.776;2023-09-18T02:55:02;5.80;;;3.85;;
10653;SDS011;5375;51.250;6.776;2023-09-18T02:57:28;5.32;;;4.03;;
10653;SDS011;5375;51.250;6.776;2023-09-18T02:59:54;6.95;;;4.03;;
10653;SDS011;5375;51.250;6.776;2023-09-18T03:02:20;4.15;;;3.47;;
10653;SDS011;5375;51.250;6.776;2023-09-18T03:04:46;3.90;;;3.50;;
10653;SDS011;5375;51.250;6.776;2023-09-18T03:07:13;8.02;;;4.47;;
10653;SDS011;5375;51.250;6.776;2023-09-18T03:09:39;6.53;;;3.83;;
10653;SDS011;5375;51.250;6.776;2023-09-18T03:12:05;5.70;;;4.07;;
10653;SDS011;5375;51.250;6.776;2023-09-18T03:14:31;5.07;;;3.67;;
10653;SDS011;5375;51.250;6.776;2023-09-18T03:16:57;4.93;;;4.00;;
10653;SDS011;5375;51.250;6.776;2023-09-18T03:19:23;5.63;;;4.00;;
10653;SDS011;5375;51.250;6.776;2023-09-18T03:21:49;6.15;;;3.78;;
10653;SDS011;5375;51.250;6.776;2023-09-18T03:24:15;4.78;;;3.92;;
10653;SDS011;5375;51.250;6.776;2023-09-18T03:26:41;4.75;;;3.58;;
10653;SDS011;5375;51.250;6.776;2023-09-18T03:29:07;5.47;;;3.58;;
10653;SDS011;5375;51.250;6.776;2023-09-18T03:31:33;5.35;;;3.60;;
10653;SDS011;5375;51.250;6.776;2023-09-18T03:33:59;5.55;;;3.80;;
10653;SDS011;5375;51.250;6.776;2023-09-18T03:36:25;3.97;;;3.58;;
10653;SDS011;5375;51.250;6.776;2023-09-18T03:38:51;5.07;;;3.50;;
10653;SDS011;5375;51.250;6.776;2023-09-18T03:41:17;7.55;;;3.97;;
10653;SDS011;5375;51.250;6.776;2023-09-18T03:43:44;4.90;;;3.95;;
10653;SDS011;5375;51.250;6.776;2023-09-18T03:46:10;6.20;;;4.05;;
10653;SDS011;5375;51.250;6.776;2023-09-18T03:48:36;4.78;;;3.67;;
10653;SDS011;5375;51.250;6.776;2023-09-18T03:51:03;4.72;;;4.10;;
10653;SDS011;5375;51.250;6.776;2023-09-18T03:53:29;4.45;;;3.72;;
10653;SDS011;5375;51.250;6.776;2023-09-18T03:55:55;4.07;;;3.67;;
10653;SDS011;5375;51.250;6.776;2023-09-18T03:58:21;4.53;;;3.42;;
10653;SDS011;5375;51.250;6.776;2023-09-18T04:00:47;5.57;;;3.67;;
10653;SDS011;5375;51.250;6.776;2023-09-18T04:03:14;5.13;;;3.85;;
10653;SDS011;5375;51.250;6.776;2023-09-18T04:05:40;4.75;;;3.85;;
10653;SDS011;5375;51.250;6.776;2023-09-18T04:08:06;4.20;;;3.80;;
10653;SDS011;5375;51.250;6.776;2023-09-18T04:10:32;7.45;;;3.92;;
10653;SDS011;5375;51.250;6.776;2023-09-18T04:12:58;6.15;;;3.78;;
10653;SDS011;5375;51.250;6.776;2023-09-18T04:15:24;5.53;;;3.58;;
10653;SDS011;5375;51.250;6.776;2023-09-18T04:17:50;4.85;;;4.13;;
10653;SDS011;5375;51.250;6.776;2023-09-18T04:20:19;6.53;;;3.78;;
10653;SDS011;5375;51.250;6.776;2023-09-18T04:22:46;3.75;;;3.35;;
10653;SDS011;5375;51.250;6.776;2023-09-18T04:25:16;7.32;;;4.30;;
10653;SDS011;5375;51.250;6.776;2023-09-18T04:27:44;6.38;;;4.22;;
10653;SDS011;5375;51.250;6.776;2023-09-18T04:30:10;8.70;;;4.25;;
10653;SDS011;5375;51.250;6.776;2023-09-18T04:32:36;7.55;;;4.25;;
10653;SDS011;5375;51.250;6.776;2023-09-18T04:35:03;8.35;;;4.43;;
10653;SDS011;5375;51.250;6.776;2023-09-18T04:37:35;7.78;;;4.32;;
10653;SDS011;5375;51.250;6.776;2023-09-18T04:40:01;8.65;;;3.75;;
10653;SDS011;5375;51.250;6.776;2023-09-18T04:42:29;6.85;;;4.40;;
10653;SDS011;5375;51.250;6.776;2023-09-18T04:44:55;7.75;;;4.38;;
10653;SDS011;5375;51.250;6.776;2023-09-18T04:47:21;7.38;;;3.97;;
10653;SDS011;5375;51.250;6.776;2023-09-18T04:49:47;7.68;;;4.07;;
10653;SDS011;5375;51.250;6.776;2023-09-18T04:52:20;11.43;;;4.45;;
10653;SDS011;5375;51.250;6.776;2023-09-18T04:54:48;9.60;;;3.90;;
10653;SDS011;5375;51.250;6.776;2023-09-18T04:57:14;4.90;;;3.72;;
10653;SDS011;5375;51.250;6.776;2023-09-18T04:59:40;5.00;;;3.55;;
10653;SDS011;5375;51.250;6.776;2023-09-18T05:02:06;6.97;;;3.67;;
10653;SDS011;5375;51.250;6.776;2023-09-18T05:04:32;5.82;;;4.28;;
10653;SDS011;5375;51.250;6.776;2023-09-18T05:06:58;8.90;;;4.28;;
10653;SDS011;5375;51.250;6.776;2023-09-18T05:09:27;9.27;;;4.20;;
10653;SDS011;5375;51.250;6.776;2023-09-18T05:11:53;8.82;;;4.10;;
10653;SDS011;5375;51.250;6.776;2023-09-18T05:14:19;6.97;;;3.92;;
10653;SDS011;5375;51.250;6.776;2023-09-18T05:16:45;9.20;;;4.20;;
10653;SDS011;5375;51.250;6.776;2023-09-18T05:19:11;7.03;;;3.63;;
10653;SDS011;5375;51.250;6.776;2023-09-18T05:21:37;6.13;;;3.50;;
10653;SDS011;5375;51.250;6.776;2023-09-18T05:24:03;5.60;;;3.65;;
10653;SDS011;5375;51.250;6.776;2023-09-18T05:26:32;9.60;;;3.55;;
10653;SDS011;5375;51.250;6.776;2023-09-18T05:28:58;7.03;;;3.33;;
10653;SDS011;5375;51.250;6.776;2023-09-18T05:31:24;4.55;;;3.17;;
10653;SDS011;5375;51.250;6.776;2023-09-18T05:33:50;10.68;;;3.88;;
10653;SDS011;5375;51.250;6.776;2023-09-18T05:36:16;8.43;;;3.45;;
10653;SDS011;5375;51.250;6.776;2023-09-18T05:38:42;6.53;;;3.20;;
10653;SDS011;5375;51.250;6.776;2023-09-18T05:41:08;4.38;;;3.30;;
10653;SDS011;5375;51.250;6.776;2023-09-18T05:43:35;5.78;;;3.33;;
10653;SDS011;5375;51.250;6.776;2023-09-18T05:46:01;5.40;;;2.85;;
10653;SDS011;5375;51.250;6.776;2023-09-18T05:48:27;6.18;;;4.03;;
10653;SDS011;5375;51.250;6.776;2023-09-18T05:50:53;6.15;;;3.60;;
10653;SDS011;5375;51.250;6.776;2023-09-18T05:53:19;7.47;;;3.40;;
10653;SDS011;5375;51.250;6.776;2023-09-18T05:55:46;7.68;;;3.92;;
10653;SDS011;5375;51.250;6.776;2023-09-18T05:58:12;4.88;;;3.15;;
10653;SDS011;5375;51.250;6.776;2023-09-18T06:00:39;6.07;;;3.30;;
10653;SDS011;5375;51.250;6.776;2023-09-18T06:03:05;4.78;;;2.95;;
10653;SDS011;5375;51.250;6.776;2023-09-18T06:05:31;6.57;;;3.00;;
10653;SDS011;5375;51.250;6.776;2023-09-18T06:07:59;4.60;;;3.30;;
10653;SDS011;5375;51.250;6.776;2023-09-18T06:10:25;7.00;;;3.58;;
10653;SDS011;5375;51.250;6.776;2023-09-18T06:12:51;5.78;;;3.15;;
10653;SDS011;5375;51.250;6.776;2023-09-18T06:15:17;6.68;;;3.22;;
10653;SDS011;5375;51.250;6.776;2023-09-18T06:17:44;4.78;;;3.33;;
10653;SDS011;5375;51.250;6.776;2023-09-18T06:20:10;9.32;;;3.65;;
10653;SDS011;5375;51.250;6.776;2023-09-18T06:22:40;9.50;;;3.30;;
10653;SDS011;5375;51.250;6.776;2023-09-18T06:25:07;3.90;;;3.28;;
10653;SDS011;5375;51.250;6.776;2023-09-18T06:27:35;6.85;;;3.13;;
10653;SDS011;5375;51.250;6.776;2023-09-18T06:30:01;4.05;;;3.13;;
10653;SDS011;5375;51.250;6.776;2023-09-18T06:32:30;7.05;;;3.40;;
10653;SDS011;5375;51.250;6.776;2023-09-18T06:34:57;8.15;;;3.80;;
10653;SDS011;5375;51.250;6.776;2023-09-18T06:37:23;4.50;;;3.00;;
10653;SDS011;5375;51.250;6.776;2023-09-18T06:39:49;5.50;;;3.70;;
10653;SDS011;5375;51.250;6.776;2023-09-18T06:42:15;6.75;;;3.38;;
10653;SDS011;5375;51.250;6.776;2023-09-18T06:44:41;5.50;;;3.35;;
10653;SDS011;5375;51.250;6.776;2023-09-18T06:47:07;4.47;;;3.08;;
10653;SDS011;5375;51.250;6.776;2023-09-18T06:49:33;5.82;;;2.90;;
10653;SDS011;5375;51.250;6.776;2023-09-18T06:51:59;5.38;;;3.13;;
10653;SDS011;5375;51.250;6.776;2023-09-18T06:54:25;5.38;;;3.20;;
10653;SDS011;5375;51.250;6.776;2023-09-18T06:56:54;6.18;;;2.80;;
10653;SDS011;5375;51.250;6.776;2023-09-18T06:59:20;5.10;;;3.10;;
10653;SDS011;5375;51.250;6.776;2023-09-18T07:01:46;5.03;;;2.78;;
10653;SDS011;5375;51.250;6.776;2023-09-18T07:04:12;5.43;;;3.35;;
10653;SDS011;5375;51.250;6.776;2023-09-18T07:06:38;4.32;;;2.55;;
10653;SDS011;5375;51.250;6.776;2023-09-18T07:09:04;6.05;;;2.90;;
10653;SDS011;5375;51.250;6.776;2023-09-18T07:11:32;4.40;;;2.67;;
10653;SDS011;5375;51.250;6.776;2023-09-18T07:13:58;4.20;;;2.78;;
10653;SDS011;5375;51.250;6.776;2023-09-18T07:16:24;5.22;;;2.55;;
10653;SDS011;5375;51.250;6.776;2023-09-18T07:18:50;5.40;;;3.22;;
10653;SDS011;5375;51.250;6.776;2023-09-18T07:21:16;5.68;;;2.70;;
10653;SDS011;5375;51.250;6.776;2023-09-18T07:23:42;4.40;;;2.70;;
10653;SDS011;5375;51.250;6.776;2023-09-18T07:26:10;3.45;;;2.47;;
10653;SDS011;5375;51.250;6.776;2023-09-18T07:28:36;5.03;;;2.40;;
10653;SDS011;5375;51.250;6.776;2023-09-18T07:31:05;6.18;;;2.80;;
10653;SDS011;5375;51.250;6.776;2023-09-18T07:33:31;5.05;;;2.58;;
10653;SDS011;5375;51.250;6.776;2023-09-18T07:35:57;3.58;;;2.35;;
10653;SDS011;5375;51.250;6.776;2023-09-18T07:38:23;4.93;;;2.70;;
10653;SDS011;5375;51.250;6.776;2023-09-18T07:40:50;3.28;;;2.20;;
10653;SDS011;5375;51.250;6.776;2023-09-18T07:43:16;4.70;;;2.78;;
10653;SDS011;5375;51.250;6.776;2023-09-18T07:45:42;3.72;;;2.40;;
10653;SDS011;5375;51.250;6.776;2023-09-18T07:48:08;3.42;;;2.22;;
10653;SDS011;5375;51.250;6.776;2023-09-18T07:50:34;2.60;;;2.10;;
10653;SDS011;5375;51.250;6.776;2023-09-18T07:53:00;3.88;;;2.33;;
10653;SDS011;5375;51.250;6.776;2023-09-18T07:55:27;4.28;;;2.10;;
10653;SDS011;5375;51.250;6.776;2023-09-18T07:57:53;2.40;;;2.08;;
10653;SDS011;5375;51.250;6.776;2023-09-18T08:00:19;3.05;;;2.25;;
10653;SDS011;5375;51.250;6.776;2023-09-18T08:02:47;3.97;;;2.60;;
10653;SDS011;5375;51.250;6.776;2023-09-18T08:05:15;2.67;;;1.98;;
10653;SDS011;5375;51.250;6.776;2023-09-18T08:07:41;3.88;;;2.30;;
10653;SDS011;5375;51.250;6.776;2023-09-18T08:10:07;3.72;;;2.42;;
10653;SDS011;5375;51.250;6.776;2023-09-18T08:12:33;2.72;;;2.00;;
10653;SDS011;5375;51.250;6.776;2023-09-18T08:15:00;4.32;;;2.60;;
10653;SDS011;5375;51.250;6.776;2023-09-18T08:17:27;3.13;;;2.30;;
10653;SDS011;5375;51.250;6.776;2023-09-18T08:19:54;2.97;;;2.10;;
10653;SDS011;5375;51.250;6.776;2023-09-18T08:22:22;2.90;;;2.00;;
10653;SDS011;5375;51.250;6.776;2023-09-18T08:24:48;4.10;;;2.17;;
10653;SDS011;5375;51.250;6.776;2023-09-18T08:27:17;3.78;;;1.80;;
10653;SDS011;5375;51.250;6.776;2023-09-18T08:29:44;4.18;;;2.00;;
10653;SDS011;5375;51.250;6.776;2023-09-18T08:32:10;3.55;;;2.20;;
10653;SDS011;5375;51.250;6.776;2023-09-18T08:34:36;3.20;;;1.90;;
10653;SDS011;5375;51.250;6.776;2023-09-18T08:37:02;2.45;;;1.85;;
10653;SDS011;5375;51.250;6.776;2023-09-18T08:39:28;3.35;;;1.95;;
10653;SDS011;5375;51.250;6.776;2023-09-18T08:41:58;3.97;;;1.83;;
10653;SDS011;5375;51.250;6.776;2023-09-18T08:44:24;3.25;;;1.90;;
10653;SDS011;5375;51.250;6.776;2023-09-18T08:46:53;3.83;;;1.80;;
10653;SDS011;5375;51.250;6.776;2023-09-18T08:49:19;4.00;;;1.88;;
10653;SDS011;5375;51.250;6.776;2023-09-18T08:51:46;2.63;;;1.95;;
10653;SDS011;5375;51.250;6.776;2023-09-18T08:54:13;3.67;;;1.85;;
10653;SDS011;5375;51.250;6.776;2023-09-18T08:56:41;2.72;;;1.88;;
10653;SDS011;5375;51.250;6.776;2023-09-18T08:59:07;2.47;;;1.95;;
10653;SDS011;5375;51.250;6.776;2023-09-18T09:01:33;3.88;;;1.67;;
10653;SDS011;5375;51.250;6.776;2023-09-18T09:03:59;3.22;;;1.85;;
10653;SDS011;5375;51.250;6.776;2023-09-18T09:06:25;2.92;;;1.90;;
10653;SDS011;5375;51.250;6.776;2023-09-18T09:08:52;2.75;;;1.80;;
10653;SDS011;5375;51.250;6.776;2023-09-18T09:11:18;4.07;;;1.88;;
10653;SDS011;5375;51.250;6.776;2023-09-18T09:13:48;3.83;;;1.60;;
10653;SDS011;5375;51.250;6.776;2023-09-18T09:16:34;3.35;;;1.80;;
10653;SDS011;5375;51.250;6.776;2023-09-18T09:19:00;3.40;;;1.92;;
10653;SDS011;5375;51.250;6.776;2023-09-18T09:21:37;2.90;;;1.70;;
10653;SDS011;5375;51.250;6.776;2023-09-18T09:24:04;3.35;;;1.80;;
10653;SDS011;5375;51.250;6.776;2023-09-18T09:26:30;2.35;;;1.60;;
10653;SDS011;5375;51.250;6.776;2023-09-18T09:28:56;3.20;;;1.83;;
10653;SDS011;5375;51.250;6.776;2023-09-18T09:33:53;2.45;;;1.52;;
10653;SDS011;5375;51.250;6.776;2023-09-18T09:36:19;3.13;;;1.85;;
10653;SDS011;5375;51.250;6.776;2023-09-18T09:38:46;3.78;;;1.98;;
10653;SDS011;5375;51.250;6.776;2023-09-18T09:41:13;2.95;;;1.55;;
10653;SDS011;5375;51.250;6.776;2023-09-18T09:43:41;2.22;;;1.88;;
10653;SDS011;5375;51.250;6.776;2023-09-18T09:46:07;2.63;;;1.80;;
10653;SDS011;5375;51.250;6.776;2023-09-18T09:48:43;3.83;;;2.03;;
10653;SDS011;5375;51.250;6.776;2023-09-18T09:51:24;3.75;;;1.70;;
10653;SDS011;5375;51.250;6.776;2023-09-18T09:53:50;2.47;;;1.80;;
10653;SDS011;5375;51.250;6.776;2023-09-18T09:56:16;2.17;;;1.83;;
10653;SDS011;5375;51.250;6.776;2023-09-18T09:59:07;2.65;;;1.90;;
10653;SDS011;5375;51.250;6.776;2023-09-18T10:01:33;2.42;;;1.73;;
10653;SDS011;5375;51.250;6.776;2023-09-18T10:03:59;2.35;;;1.73;;
10653;SDS011;5375;51.250;6.776;2023-09-18T10:06:30;3.35;;;2.03;;
10653;SDS011;5375;51.250;6.776;2023-09-18T10:08:57;2.65;;;1.67;;
10653;SDS011;5375;51.250;6.776;2023-09-18T10:11:24;3.08;;;2.00;;
10653;SDS011;5375;51.250;6.776;2023-09-18T10:14:03;2.80;;;1.90;;
10653;SDS011;5375;51.250;6.776;2023-09-18T10:16:32;2.50;;;1.98;;
10653;SDS011;5375;51.250;6.776;2023-09-18T10:24:26;3.30;;;1.90;;
10653;SDS011;5375;51.250;6.776;2023-09-18T10:26:57;2.38;;;1.80;;
10653;SDS011;5375;51.250;6.776;2023-09-18T10:29:24;2.20;;;1.88;;
10653;SDS011;5375;51.250;6.776;2023-09-18T10:31:51;2.55;;;1.90;;
10653;SDS011;5375;51.250;6.776;2023-09-18T10:34:18;2.15;;;1.83;;
10653;SDS011;5375;51.250;6.776;2023-09-18T10:36:48;2.28;;;1.90;;
10653;SDS011;5375;51.250;6.776;2023-09-18T10:39:14;3.55;;;1.95;;
10653;SDS011;5375;51.250;6.776;2023-09-18T10:41:46;3.40;;;1.65;;
10653;SDS011;5375;51.250;6.776;2023-09-18T10:44:12;1.88;;;1.63;;
10653;SDS011;5375;51.250;6.776;2023-09-18T10:46:42;2.30;;;1.95;;
10653;SDS011;5375;51.250;6.776;2023-09-18T10:49:08;2.78;;;1.83;;
10653;SDS011;5375;51.250;6.776;2023-09-18T10:51:34;2.80;;;1.80;;
10653;SDS011;5375;51.250;6.776;2023-09-18T10:54:00;2.72;;;2.10;;
10653;SDS011;5375;51.250;6.776;2023-09-18T10:56:26;2.83;;;2.00;;
10653;SDS011;5375;51.250;6.776;2023-09-18T10:58:55;3.53;;;1.70;;
10653;SDS011;5375;51.250;6.776;2023-09-18T11:01:23;1.90;;;1.70;;
10653;SDS011;5375;51.250;6.776;2023-09-18T11:03:52;2.35;;;1.80;;
10653;SDS011;5375;51.250;6.776;2023-09-18T11:06:18;1.98;;;1.77;;
10653;SDS011;5375;51.250;6.776;2023-09-18T11:08:47;3.15;;;1.95;;
10653;SDS011;5375;51.250;6.776;2023-09-18T11:11:13;2.00;;;1.80;;
10653;SDS011;5375;51.250;6.776;2023-09-18T11:13:51;2.75;;;1.77;;
10653;SDS011;5375;51.250;6.776;2023-09-18T11:21:30;2.67;;;1.90;;
10653;SDS011;5375;51.250;6.776;2023-09-18T11:24:06;2.75;;;1.83;;
10653;SDS011;5375;51.250;6.776;2023-09-18T11:26:37;2.53;;;1.92;;
10653;SDS011;5375;51.250;6.776;2023-09-18T11:29:07;2.65;;;1.80;;
10653;SDS011;5375;51.250;6.776;2023-09-18T11:32:07;2.10;;;1.83;;
10653;SDS011;5375;51.250;6.776;2023-09-18T11:34:29;2.45;;;1.70;;
10653;SDS011;5375;51.250;6.776;2023-09-18T11:37:00;2.10;;;1.88;;
10653;SDS011;5375;51.250;6.776;2023-09-18T11:39:33;2.58;;;1.77;;
10653;SDS011;5375;51.250;6.776;2023-09-18T11:42:09;2.15;;;1.67;;
10653;SDS011;5375;51.250;6.776;2023-09-18T11:44:35;2.85;;;1.70;;
10653;SDS011;5375;51.250;6.776;2023-09-18T11:47:06;3.40;;;1.80;;
10653;SDS011;5375;51.250;6.776;2023-09-18T11:49:32;2.10;;;1.90;;
10653;SDS011;5375;51.250;6.776;2023-09-18T11:51:59;1.55;;;1.45;;
10653;SDS011;5375;51.250;6.776;2023-09-18T11:54:26;1.83;;;1.60;;
10653;SDS011;5375;51.250;6.776;2023-09-18T11:56:54;2.00;;;1.80;;
10653;SDS011;5375;51.250;6.776;2023-09-18T11:59:32;3.03;;;1.88;;
10653;SDS011;5375;51.250;6.776;2023-09-18T12:02:00;2.28;;;1.70;;
10653;SDS011;5375;51.250;6.776;2023-09-18T12:04:31;1.98;;;1.70;;
10653;SDS011;5375;51.250;6.776;2023-09-18T12:06:58;3.05;;;1.90;;
10653;SDS011;5375;51.250;6.776;2023-09-18T12:09:31;2.10;;;1.85;;
10653;SDS011;5375;51.250;6.776;2023-09-18T12:11:59;2.85;;;1.50;;
10653;SDS011;5375;51.250;6.776;2023-09-18T12:14:30;1.85;;;1.70;;
10653;SDS011;5375;51.250;6.776;2023-09-18T12:16:56;1.98;;;1.85;;
10653;SDS011;5375;51.250;6.776;2023-09-18T12:19:22;3.70;;;1.90;;
10653;SDS011;5375;51.250;6.776;2023-09-18T12:21:48;2.15;;;1.83;;
10653;SDS011;5375;51.250;6.776;2023-09-18T12:24:15;2.67;;;1.42;;
10653;SDS011;5375;51.250;6.776;2023-09-18T12:26:41;2.15;;;1.95;;
10653;SDS011;5375;51.250;6.776;2023-09-18T12:29:10;2.70;;;1.45;;
10653;SDS011;5375;51.250;6.776;2023-09-18T12:31:36;2.03;;;1.83;;
10653;SDS011;5375;51.250;6.776;2023-09-18T12:34:03;2.13;;;1.83;;
10653;SDS011;5375;51.250;6.776;2023-09-18T12:36:32;2.10;;;1.60;;
10653;SDS011;5375;51.250;6.776;2023-09-18T12:38:59;3.78;;;1.83;;
10653;SDS011;5375;51.250;6.776;2023-09-18T12:41:30;2.72;;;1.90;;
10653;SDS011;5375;51.250;6.776;2023-09-18T12:43:57;2.58;;;1.55;;
10653;SDS011;5375;51.250;6.776;2023-09-18T12:46:23;2.70;;;1.95;;
10653;SDS011;5375;51.250;6.776;2023-09-18T12:48:49;3.25;;;1.83;;
10653;SDS011;5375;51.250;6.776;2023-09-18T12:51:16;2.80;;;1.77;;
10653;SDS011;5375;51.250;6.776;2023-09-18T12:53:47;3.00;;;1.52;;
10653;SDS011;5375;51.250;6.776;2023-09-18T12:56:13;1.65;;;1.52;;
10653;SDS011;5375;51.250;6.776;2023-09-18T12:58:40;2.00;;;1.67;;
10653;SDS011;5375;51.250;6.776;2023-09-18T13:01:08;1.90;;;1.70;;
10653;SDS011;5375;51.250;6.776;2023-09-18T13:03:44;1.60;;;1.42;;
10653;SDS011;5375;51.250;6.776;2023-09-18T13:06:11;2.22;;;1.90;;
10653;SDS011;5375;51.250;6.776;2023-09-18T13:08:38;2.03;;;1.60;;
10653;SDS011;5375;51.250;6.776;2023-09-18T13:11:04;3.42;;;1.55;;
10653;SDS011;5375;51.250;6.776;2023-09-18T13:13:31;1.70;;;1.60;;
10653;SDS011;5375;51.250;6.776;2023-09-18T13:15:58;1.70;;;1.60;;
10653;SDS011;5375;51.250;6.776;2023-09-18T13:18:25;1.40;;;1.30;;
10653;SDS011;5375;51.250;6.776;2023-09-18T13:20:54;1.67;;;1.58;;
10653;SDS011;5375;51.250;6.776;2023-09-18T13:23:20;1.98;;;1.75;;
10653;SDS011;5375;51.250;6.776;2023-09-18T13:25:46;2.42;;;1.50;;
10653;SDS011;5375;51.250;6.776;2023-09-18T13:28:13;1.92;;;1.50;;
10653;SDS011;5375;51.250;6.776;2023-09-18T13:30:40;1.63;;;1.52;;
10653;SDS011;5375;51.250;6.776;2023-09-18T13:33:15;1.90;;;1.70;;
10653;SDS011;5375;51.250;6.776;2023-09-18T13:35:42;1.65;;;1.55;;
10653;SDS011;5375;51.250;6.776;2023-09-18T13:38:09;1.50;;;1.40;;
10653;SDS011;5375;51.250;6.776;2023-09-18T13:40:36;1.70;;;1.58;;
10653;SDS011;5375;51.250;6.776;2023-09-18T13:43:03;1.65;;;1.55;;
10653;SDS011;5375;51.250;6.776;2023-09-18T13:45:29;1.67;;;1.58;;
10653;SDS011;5375;51.250;6.776;2023-09-18T13:47:55;1.77;;;1.67;;
10653;SDS011;5375;51.250;6.776;2023-09-18T13:50:21;1.67;;;1.52;;
10653;SDS011;5375;51.250;6.776;2023-09-18T13:52:47;2.63;;;1.60;;
10653;SDS011;5375;51.250;6.776;2023-09-18T13:55:13;2.13;;;1.80;;
10653;SDS011;5375;51.250;6.776;2023-09-18T13:57:39;1.63;;;1.45;;
10653;SDS011;5375;51.250;6.776;2023-09-18T14:00:06;2.13;;;1.80;;
10653;SDS011;5375;51.250;6.776;2023-09-18T14:02:34;4.25;;;1.38;;
10653;SDS011;5375;51.250;6.776;2023-09-18T14:05:00;1.65;;;1.42;;
10653;SDS011;5375;51.250;6.776;2023-09-18T14:07:28;3.13;;;1.60;;
10653;SDS011;5375;51.250;6.776;2023-09-18T14:09:54;3.90;;;1.80;;
10653;SDS011;5375;51.250;6.776;2023-09-18T14:12:20;3.28;;;1.52;;
10653;SDS011;5375;51.250;6.776;2023-09-18T14:14:46;2.67;;;1.75;;
10653;SDS011;5375;51.250;6.776;2023-09-18T14:17:12;2.45;;;1.63;;
10653;SDS011;5375;51.250;6.776;2023-09-18T14:19:38;2.55;;;1.70;;
10653;SDS011;5375;51.250;6.776;2023-09-18T14:22:05;2.30;;;1.77;;
10653;SDS011;5375;51.250;6.776;2023-09-18T14:24:32;2.30;;;1.50;;
10653;SDS011;5375;51.250;6.776;2023-09-18T14:27:08;3.65;;;1.92;;
10653;SDS011;5375;51.250;6.776;2023-09-18T14:29:34;1.60;;;1.50;;
10653;SDS011;5375;51.250;6.776;2023-09-18T14:32:00;6.60;;;1.75;;
10653;SDS011;5375;51.250;6.776;2023-09-18T14:34:27;1.85;;;1.70;;
10653;SDS011;5375;51.250;6.776;2023-09-18T14:36:55;1.77;;;1.40;;
10653;SDS011;5375;51.250;6.776;2023-09-18T14:39:21;1.60;;;1.50;;
10653;SDS011;5375;51.250;6.776;2023-09-18T14:41:47;1.65;;;1.55;;
10653;SDS011;5375;51.250;6.776;2023-09-18T14:44:14;1.50;;;1.40;;
10653;SDS011;5375;51.250;6.776;2023-09-18T14:46:40;1.92;;;1.45;;
10653;SDS011;5375;51.250;6.776;2023-09-18T14:49:06;2.20;;;1.80;;
10653;SDS011;5375;51.250;6.776;2023-09-18T14:51:33;1.75;;;1.50;;
10653;SDS011;5375;51.250;6.776;2023-09-18T14:53:59;1.80;;;1.58;;
10653;SDS011;5375;51.250;6.776;2023-09-18T14:56:26;2.10;;;1.50;;
10653;SDS011;5375;51.250;6.776;2023-09-18T14:58:55;1.73;;;1.40;;
10653;SDS011;5375;51.250;6.776;2023-09-18T15:01:22;1.98;;;1.40;;
10653;SDS011;5375;51.250;6.776;2023-09-18T15:03:48;1.60;;;1.35;;
10653;SDS011;5375;51.250;6.776;2023-09-18T15:06:14;3.17;;;1.40;;
10653;SDS011;5375;51.250;6.776;2023-09-18T15:08:40;2.33;;;1.70;;
10653;SDS011;5375;51.250;6.776;2023-09-18T15:11:06;2.05;;;1.42;;
10653;SDS011;5375;51.250;6.776;2023-09-18T15:13:33;1.50;;;1.38;;
10653;SDS011;5375;51.250;6.776;2023-09-18T15:16:02;2.70;;;1.42;;
10653;SDS011;5375;51.250;6.776;2023-09-18T15:18:28;1.48;;;1.33;;
10653;SDS011;5375;51.250;6.776;2023-09-18T15:20:54;2.30;;;1.45;;